Time;durP1;ratioP1;P1;durP2;ratioP2;P2;SDS_P1;SDS_P2;PMS_P1;PMS_P2;Temp;Humidity;BMP_temperature;BMP_pressure;BME280_temperature;BME280_humidity;BME280_pressure;Samples;Min_cycle;Max_cycle;Signal;HPM_P1;HPM_P2
2022/08/25 00:01:49;;;;;;;24.73;22.00;;;;;;;;;;4974598;28;20041;-71
2022/08/25 00:04:15;;;;;;;24.65;22.15;;;;;;;;;;4974996;28;20335;-71
2022/08/25 00:06:43;;;;;;;23.92;21.50;;;;;;;;;;4974240;28;20036;-71
2022/08/25 00:09:11;;;;;;;24.23;21.77;;;;;;;;;;4974226;28;20072;-71
2022/08/25 00:11:37;;;;;;;28.00;23.45;;;;;;;;;;4973684;28;20637;-71
2022/08/25 00:14:04;;;;;;;24.02;21.50;;;;;;;;;;4978187;28;21123;-71
2022/08/25 00:16:31;;;;;;;27.73;23.90;;;;;;;;;;4977738;28;20564;-71
2022/08/25 00:18:58;;;;;;;26.70;23.95;;;;;;;;;;4944809;28;20059;-71
2022/08/25 00:21:24;;;;;;;27.30;24.35;;;;;;;;;;4978368;28;20037;-71
2022/08/25 00:23:49;;;;;;;28.23;25.30;;;;;;;;;;4977676;28;20097;-71
2022/08/25 00:26:15;;;;;;;27.13;24.33;;;;;;;;;;4977177;28;20203;-71
2022/08/25 00:28:42;;;;;;;27.02;23.90;;;;;;;;;;4978832;28;20058;-70
2022/08/25 00:31:15;;;;;;;27.45;24.40;;;;;;;;;;4977713;28;20461;-73
2022/08/25 00:33:43;;;;;;;29.90;23.95;;;;;;;;;;4964317;28;20284;-70
2022/08/25 00:36:11;;;;;;;25.95;22.95;;;;;;;;;;4978653;28;20156;-71
2022/08/25 00:38:37;;;;;;;26.20;23.60;;;;;;;;;;4959367;28;20430;-71
2022/08/25 00:41:05;;;;;;;25.40;22.70;;;;;;;;;;4976828;28;20456;-71
2022/08/25 00:43:41;;;;;;;25.58;22.83;;;;;;;;;;4975402;28;20059;-69
2022/08/25 00:46:07;;;;;;;28.65;24.67;;;;;;;;;;4976194;28;20108;-70
2022/08/25 00:48:33;;;;;;;26.50;23.33;;;;;;;;;;4975767;28;20038;-70
2022/08/25 00:51:00;;;;;;;25.83;23.05;;;;;;;;;;4958347;28;20054;-70
2022/08/25 00:53:26;;;;;;;26.75;24.15;;;;;;;;;;4955860;28;20526;-69
2022/08/25 00:55:52;;;;;;;27.58;24.60;;;;;;;;;;4974692;28;20072;-70
2022/08/25 00:58:24;;;;;;;27.42;24.65;;;;;;;;;;4976245;28;20410;-70
2022/08/25 01:00:51;;;;;;;28.92;25.92;;;;;;;;;;4975689;28;20474;-70
2022/08/25 01:03:18;;;;;;;27.85;24.80;;;;;;;;;;4977302;28;20080;-70
2022/08/25 01:05:44;;;;;;;32.97;25.75;;;;;;;;;;4975380;28;20593;-70
2022/08/25 01:08:09;;;;;;;31.55;25.00;;;;;;;;;;4950819;28;20034;-70
2022/08/25 01:10:36;;;;;;;26.58;23.75;;;;;;;;;;4978032;28;20191;-70
2022/08/25 01:13:05;;;;;;;29.77;26.35;;;;;;;;;;4977959;28;20270;-71
2022/08/25 01:15:30;;;;;;;29.60;26.55;;;;;;;;;;4977519;28;20394;-71
2022/08/25 01:17:57;;;;;;;31.23;27.67;;;;;;;;;;4976729;28;20101;-70
2022/08/25 01:20:24;;;;;;;34.67;29.45;;;;;;;;;;4975825;28;20045;-69
2022/08/25 01:22:50;;;;;;;31.23;27.85;;;;;;;;;;4978465;28;20106;-70
2022/08/25 01:25:16;;;;;;;33.05;27.25;;;;;;;;;;4976631;28;20371;-70
2022/08/25 01:27:41;;;;;;;31.38;28.05;;;;;;;;;;4977607;28;20040;-69
2022/08/25 01:30:07;;;;;;;33.47;29.95;;;;;;;;;;4975256;28;20129;-69
2022/08/25 01:32:33;;;;;;;35.95;32.10;;;;;;;;;;4977216;28;20103;-70
2022/08/25 01:34:59;;;;;;;34.75;31.25;;;;;;;;;;4962690;28;20067;-69
2022/08/25 01:37:26;;;;;;;34.78;31.00;;;;;;;;;;4976883;28;20052;-69
2022/08/25 01:39:51;;;;;;;34.58;30.52;;;;;;;;;;4944683;28;20030;-70
2022/08/25 01:42:27;;;;;;;36.20;32.25;;;;;;;;;;4977229;28;20053;-70
2022/08/25 01:44:53;;;;;;;35.10;31.40;;;;;;;;;;4960184;28;20517;-70
2022/08/25 01:47:19;;;;;;;35.35;31.60;;;;;;;;;;4968683;28;20034;-70
2022/08/25 01:49:44;;;;;;;36.85;32.88;;;;;;;;;;4975482;28;20148;-70
2022/08/25 01:52:09;;;;;;;42.25;33.20;;;;;;;;;;4976564;28;20072;-70
2022/08/25 01:54:34;;;;;;;36.95;33.00;;;;;;;;;;4977014;28;20474;-70
2022/08/25 01:57:00;;;;;;;37.92;33.92;;;;;;;;;;4976781;28;20550;-70
2022/08/25 01:59:25;;;;;;;36.55;32.65;;;;;;;;;;4975265;28;20542;-69
2022/08/25 02:01:51;;;;;;;39.35;35.15;;;;;;;;;;4957745;28;20117;-69
2022/08/25 02:04:19;;;;;;;39.42;34.90;;;;;;;;;;4953206;28;20111;-69
2022/08/25 02:06:44;;;;;;;40.35;36.13;;;;;;;;;;4942530;28;20069;-69
2022/08/25 02:09:13;;;;;;;40.67;35.13;;;;;;;;;;4960536;28;20258;-69
2022/08/25 02:11:41;;;;;;;40.67;35.58;;;;;;;;;;4951229;28;20037;-71
2022/08/25 02:14:07;;;;;;;39.38;35.15;;;;;;;;;;4974828;28;20139;-69
2022/08/25 02:16:34;;;;;;;40.15;35.75;;;;;;;;;;4977231;28;20132;-70
2022/08/25 02:18:59;;;;;;;40.25;36.03;;;;;;;;;;4974713;28;20037;-70
2022/08/25 02:21:25;;;;;;;40.83;35.95;;;;;;;;;;4976185;28;20042;-70
2022/08/25 02:23:51;;;;;;;42.22;34.13;;;;;;;;;;4951716;28;20057;-70
2022/08/25 02:26:18;;;;;;;40.80;36.45;;;;;;;;;;4976242;28;20030;-69
2022/08/25 02:28:44;;;;;;;43.72;39.13;;;;;;;;;;4958458;28;20582;-70
2022/08/25 02:31:10;;;;;;;44.30;39.75;;;;;;;;;;4975782;28;20202;-70
2022/08/25 02:33:36;;;;;;;43.17;38.45;;;;;;;;;;4974604;28;20083;-69
2022/08/25 02:36:03;;;;;;;43.78;39.05;;;;;;;;;;4976478;28;20075;-70
2022/08/25 02:38:28;;;;;;;43.55;38.88;;;;;;;;;;4976463;28;20565;-70
2022/08/25 02:40:54;;;;;;;43.85;39.38;;;;;;;;;;4976074;28;20300;-71
2022/08/25 02:43:20;;;;;;;43.60;39.10;;;;;;;;;;4974591;28;20037;-71
2022/08/25 02:45:46;;;;;;;45.13;40.42;;;;;;;;;;4975739;28;20680;-71
2022/08/25 02:48:11;;;;;;;44.58;39.85;;;;;;;;;;4974981;28;20140;-70
2022/08/25 02:50:39;;;;;;;46.40;41.17;;;;;;;;;;4975467;28;20045;-70
2022/08/25 02:53:04;;;;;;;43.95;39.50;;;;;;;;;;4974536;28;20176;-70
2022/08/25 02:55:29;;;;;;;46.33;41.28;;;;;;;;;;4974408;28;20379;-71
2022/08/25 02:57:55;;;;;;;45.40;40.40;;;;;;;;;;4962684;28;20041;-70
2022/08/25 03:00:20;;;;;;;47.53;40.97;;;;;;;;;;4959251;28;20385;-70
2022/08/25 03:02:46;;;;;;;47.67;40.05;;;;;;;;;;4975733;28;20055;-70
2022/08/25 03:05:13;;;;;;;48.42;40.38;;;;;;;;;;4975711;28;20224;-69
2022/08/25 03:07:39;;;;;;;47.55;41.60;;;;;;;;;;4976004;28;20061;-70
2022/08/25 03:10:14;;;;;;;48.05;41.67;;;;;;;;;;4974834;28;20072;-70
2022/08/25 03:12:43;;;;;;;46.88;41.60;;;;;;;;;;4958774;28;20501;-70
2022/08/25 03:15:09;;;;;;;45.35;40.75;;;;;;;;;;4972660;28;20570;-70
2022/08/25 03:17:34;;;;;;;47.45;42.45;;;;;;;;;;4975732;28;20128;-70
2022/08/25 03:19:59;;;;;;;45.78;41.08;;;;;;;;;;4975294;28;20041;-70
2022/08/25 03:22:25;;;;;;;46.60;41.42;;;;;;;;;;4973968;28;20522;-70
2022/08/25 03:24:50;;;;;;;48.38;40.78;;;;;;;;;;4973386;28;20545;-71
2022/08/25 03:27:15;;;;;;;47.17;40.53;;;;;;;;;;4973764;28;21880;-70
2022/08/25 03:29:42;;;;;;;45.88;40.40;;;;;;;;;;4974442;28;20037;-70
2022/08/25 03:32:07;;;;;;;46.30;41.70;;;;;;;;;;4974900;28;20037;-70
2022/08/25 03:34:40;;;;;;;46.17;41.42;;;;;;;;;;4973800;28;20689;-71
2022/08/25 03:37:07;;;;;;;45.22;40.58;;;;;;;;;;4948401;28;20033;-70
2022/08/25 03:39:32;;;;;;;44.08;39.45;;;;;;;;;;4950266;28;20048;-70
2022/08/25 03:41:58;;;;;;;44.47;39.75;;;;;;;;;;4958186;28;20140;-69
2022/08/25 03:44:24;;;;;;;44.50;39.95;;;;;;;;;;4974415;28;20592;-71
2022/08/25 03:46:50;;;;;;;44.78;40.00;;;;;;;;;;4959980;28;20112;-70
2022/08/25 03:49:17;;;;;;;44.65;39.95;;;;;;;;;;4972388;28;20278;-71
2022/08/25 03:51:45;;;;;;;46.63;41.35;;;;;;;;;;4974042;28;20044;-71
2022/08/25 03:54:11;;;;;;;44.40;39.85;;;;;;;;;;4974050;28;20482;-71
2022/08/25 03:56:37;;;;;;;45.35;40.65;;;;;;;;;;4974690;28;20076;-71
2022/08/25 03:59:03;;;;;;;42.80;38.42;;;;;;;;;;4974544;28;20112;-71
2022/08/25 04:01:28;;;;;;;43.97;39.45;;;;;;;;;;4974725;28;20038;-71
2022/08/25 04:03:54;;;;;;;44.05;39.00;;;;;;;;;;4974531;28;20061;-71
2022/08/25 04:06:20;;;;;;;41.67;37.28;;;;;;;;;;4974871;28;20477;-71
2022/08/25 04:08:51;;;;;;;38.95;35.08;;;;;;;;;;4973849;28;21958;-71
2022/08/25 04:11:18;;;;;;;37.93;33.77;;;;;;;;;;4972455;28;21027;-71
2022/08/25 04:13:47;;;;;;;36.55;32.85;;;;;;;;;;4973902;28;20610;-71
2022/08/25 04:16:13;;;;;;;35.63;31.88;;;;;;;;;;4975010;28;20141;-70
2022/08/25 04:18:41;;;;;;;33.72;30.17;;;;;;;;;;4973329;28;20029;-71
2022/08/25 04:21:08;;;;;;;34.10;30.83;;;;;;;;;;4939472;28;20042;-71
2022/08/25 04:23:34;;;;;;;33.78;30.13;;;;;;;;;;4950631;28;22380;-71
2022/08/25 04:26:07;;;;;;;34.75;28.42;;;;;;;;;;4974010;28;20073;-71
2022/08/25 04:28:32;;;;;;;32.60;29.30;;;;;;;;;;4972686;28;20308;-71
2022/08/25 04:30:57;;;;;;;31.75;28.38;;;;;;;;;;4974230;28;20179;-71
2022/08/25 04:33:23;;;;;;;30.88;27.67;;;;;;;;;;4956419;28;20049;-71
2022/08/25 04:35:49;;;;;;;30.92;26.65;;;;;;;;;;4974498;28;20042;-71
2022/08/25 04:38:15;;;;;;;30.95;27.70;;;;;;;;;;4973022;28;20033;-71
2022/08/25 04:40:40;;;;;;;30.02;26.92;;;;;;;;;;4974444;28;20192;-71
2022/08/25 04:43:06;;;;;;;30.48;26.83;;;;;;;;;;4973770;28;20309;-70
2022/08/25 04:45:35;;;;;;;33.10;27.67;;;;;;;;;;4960566;28;20059;-71
2022/08/25 04:48:00;;;;;;;30.38;27.17;;;;;;;;;;4973067;28;20030;-71
2022/08/25 04:50:25;;;;;;;29.88;26.77;;;;;;;;;;4974640;28;20060;-71
2022/08/25 04:52:50;;;;;;;27.45;24.55;;;;;;;;;;4972909;28;20117;-70
2022/08/25 04:55:17;;;;;;;29.45;24.98;;;;;;;;;;4972213;28;20279;-71
2022/08/25 04:57:44;;;;;;;27.40;23.33;;;;;;;;;;4972217;28;20037;-72
2022/08/25 05:00:10;;;;;;;26.45;23.73;;;;;;;;;;4973785;28;20199;-71
2022/08/25 05:02:36;;;;;;;27.33;23.02;;;;;;;;;;4975998;28;20164;-71
2022/08/25 05:05:02;;;;;;;28.63;22.58;;;;;;;;;;4978272;28;20291;-71
2022/08/25 05:07:28;;;;;;;26.50;22.42;;;;;;;;;;4976898;28;20550;-71
2022/08/25 05:09:55;;;;;;;23.77;21.30;;;;;;;;;;4977560;28;20507;-71
2022/08/25 05:12:21;;;;;;;24.25;21.75;;;;;;;;;;4951405;28;20125;-71
2022/08/25 05:14:47;;;;;;;24.63;19.98;;;;;;;;;;4974597;28;20045;-71
2022/08/25 05:17:13;;;;;;;22.77;19.80;;;;;;;;;;4962955;28;20036;-70
2022/08/25 05:19:38;;;;;;;22.58;20.08;;;;;;;;;;4976326;28;20680;-70
2022/08/25 05:22:05;;;;;;;23.08;19.27;;;;;;;;;;4977847;28;20123;-70
2022/08/25 05:24:30;;;;;;;22.20;17.98;;;;;;;;;;4977845;28;20180;-70
2022/08/25 05:26:56;;;;;;;20.40;18.25;;;;;;;;;;4976648;28;20033;-70
2022/08/25 05:29:22;;;;;;;20.10;17.60;;;;;;;;;;4951840;28;20071;-70
2022/08/25 05:31:48;;;;;;;20.38;17.15;;;;;;;;;;4958039;28;20041;-70
2022/08/25 05:34:13;;;;;;;20.48;15.98;;;;;;;;;;4975365;28;20928;-70
2022/08/25 05:36:42;;;;;;;18.33;16.55;;;;;;;;;;4975876;28;20034;-71
2022/08/25 05:39:07;;;;;;;17.75;15.27;;;;;;;;;;4967374;28;20668;-70
2022/08/25 05:41:32;;;;;;;19.42;14.82;;;;;;;;;;4974263;28;20033;-70
2022/08/25 05:43:58;;;;;;;16.25;14.43;;;;;;;;;;4977401;28;20099;-71
2022/08/25 05:46:23;;;;;;;17.02;13.68;;;;;;;;;;4965782;28;20044;-70
2022/08/25 05:48:49;;;;;;;16.80;13.70;;;;;;;;;;4976612;28;20461;-70
2022/08/25 05:51:15;;;;;;;16.80;13.73;;;;;;;;;;4960969;28;20458;-71
2022/08/25 05:53:44;;;;;;;18.10;12.48;;;;;;;;;;4975564;28;20530;-71
2022/08/25 05:56:09;;;;;;;16.80;12.55;;;;;;;;;;4977261;28;20469;-72
2022/08/25 05:58:35;;;;;;;16.75;12.30;;;;;;;;;;4977340;28;20030;-70
2022/08/25 06:03:46;;;;;;;15.50;11.60;;;;;;;;;;4928904;28;20146;-70
2022/08/25 06:06:12;;;;;;;13.25;10.85;;;;;;;;;;4976788;28;20049;-71
2022/08/25 06:08:37;;;;;;;20.23;11.43;;;;;;;;;;4972115;28;20039;-70
2022/08/25 06:11:06;;;;;;;13.55;10.75;;;;;;;;;;4974947;28;20122;-70
2022/08/25 06:13:31;;;;;;;18.10;10.30;;;;;;;;;;4972833;28;20145;-70
2022/08/25 06:15:59;;;;;;;16.70;10.13;;;;;;;;;;4973845;28;20072;-70
2022/08/25 06:18:25;;;;;;;17.88;10.25;;;;;;;;;;4976329;28;20041;-70
2022/08/25 06:20:50;;;;;;;13.07;9.25;;;;;;;;;;4974864;28;20081;-70
2022/08/25 06:23:17;;;;;;;11.80;9.15;;;;;;;;;;4975213;28;20189;-71
2022/08/25 06:25:48;;;;;;;14.27;9.32;;;;;;;;;;4977038;28;20590;-70
2022/08/25 06:28:15;;;;;;;12.52;8.45;;;;;;;;;;4976192;28;20370;-70
2022/08/25 06:30:40;;;;;;;13.05;8.57;;;;;;;;;;4976387;28;20604;-69
2022/08/25 06:33:06;;;;;;;12.70;8.52;;;;;;;;;;4975061;28;20025;-70
2022/08/25 06:35:31;;;;;;;13.77;8.40;;;;;;;;;;4976979;28;20063;-70
2022/08/25 06:37:59;;;;;;;16.48;7.57;;;;;;;;;;4975850;28;20038;-70
2022/08/25 06:40:24;;;;;;;12.20;8.18;;;;;;;;;;4977269;28;20465;-70
2022/08/25 06:42:50;;;;;;;14.07;7.32;;;;;;;;;;4978094;28;20049;-70
2022/08/25 06:45:15;;;;;;;10.98;7.30;;;;;;;;;;4977351;28;20140;-70
2022/08/25 06:47:41;;;;;;;15.07;7.10;;;;;;;;;;4958585;28;20100;-70
2022/08/25 06:50:07;;;;;;;14.77;7.20;;;;;;;;;;4976385;28;20041;-70
2022/08/25 06:52:32;;;;;;;10.50;6.32;;;;;;;;;;4976028;28;20209;-70
2022/08/25 06:54:58;;;;;;;15.70;6.57;;;;;;;;;;4976262;28;20038;-70
2022/08/25 06:57:23;;;;;;;8.80;6.15;;;;;;;;;;4964399;28;20132;-71
2022/08/25 06:59:49;;;;;;;15.38;5.82;;;;;;;;;;4975094;28;20037;-70
2022/08/25 07:02:15;;;;;;;8.70;5.35;;;;;;;;;;4971638;28;20038;-70
2022/08/25 07:04:40;;;;;;;9.30;5.50;;;;;;;;;;4942790;28;20100;-70
2022/08/25 07:07:05;;;;;;;14.00;5.43;;;;;;;;;;4975647;28;20321;-70
2022/08/25 07:09:30;;;;;;;10.90;5.45;;;;;;;;;;4960158;28;20093;-70
2022/08/25 07:11:56;;;;;;;12.05;5.38;;;;;;;;;;4976114;28;20106;-70
2022/08/25 07:14:22;;;;;;;12.45;5.28;;;;;;;;;;4975591;28;20057;-70
2022/08/25 07:16:47;;;;;;;10.82;4.90;;;;;;;;;;4959703;28;20314;-68
2022/08/25 07:19:13;;;;;;;10.48;4.60;;;;;;;;;;4974934;28;20030;-69
2022/08/25 07:21:40;;;;;;;7.78;4.35;;;;;;;;;;4974336;28;20038;-69
2022/08/25 07:24:06;;;;;;;8.02;4.30;;;;;;;;;;4972703;28;20049;-69
2022/08/25 07:26:35;;;;;;;8.38;4.60;;;;;;;;;;4975113;28;20119;-70
2022/08/25 07:29:01;;;;;;;12.00;4.35;;;;;;;;;;4973162;28;20081;-69
2022/08/25 07:31:27;;;;;;;11.18;4.13;;;;;;;;;;4974203;28;20041;-71
2022/08/25 07:36:36;;;;;;;7.35;3.30;;;;;;;;;;4974508;28;20068;-72
2022/08/25 07:39:05;;;;;;;8.95;3.85;;;;;;;;;;4974527;28;20069;-71
2022/08/25 07:41:32;;;;;;;9.70;3.45;;;;;;;;;;4972133;28;20087;-68
2022/08/25 07:43:57;;;;;;;14.73;3.80;;;;;;;;;;4974633;28;20332;-68
2022/08/25 07:46:23;;;;;;;7.22;3.28;;;;;;;;;;4976035;28;20481;-69
2022/08/25 07:48:48;;;;;;;10.10;3.30;;;;;;;;;;4975711;28;20253;-70
2022/08/25 07:51:14;;;;;;;9.45;3.15;;;;;;;;;;4975459;28;20034;-70
2022/08/25 07:53:40;;;;;;;11.25;3.10;;;;;;;;;;4971849;28;20238;-69
2022/08/25 07:56:12;;;;;;;7.07;2.80;;;;;;;;;;4953023;28;20034;-68
2022/08/25 07:58:38;;;;;;;5.50;3.00;;;;;;;;;;4973085;28;20040;-71
2022/08/25 08:01:03;;;;;;;9.35;2.90;;;;;;;;;;4976465;28;20029;-71
2022/08/25 08:03:30;;;;;;;5.63;2.80;;;;;;;;;;4974635;28;20053;-72
2022/08/25 08:05:58;;;;;;;8.57;2.85;;;;;;;;;;4958888;28;20179;-71
2022/08/25 08:08:23;;;;;;;5.05;2.58;;;;;;;;;;4959712;28;20164;-71
2022/08/25 08:10:49;;;;;;;8.40;2.90;;;;;;;;;;4957894;28;20857;-71
2022/08/25 08:13:15;;;;;;;6.75;2.72;;;;;;;;;;4976362;28;20044;-71
2022/08/25 08:15:41;;;;;;;7.30;2.70;;;;;;;;;;4976081;28;20553;-71
2022/08/25 08:18:07;;;;;;;7.65;2.97;;;;;;;;;;4974275;28;20698;-70
2022/08/25 08:20:35;;;;;;;5.68;2.60;;;;;;;;;;4957889;28;20044;-71
2022/08/25 08:23:00;;;;;;;9.35;2.90;;;;;;;;;;4958937;28;20303;-71
2022/08/25 08:25:25;;;;;;;7.38;3.00;;;;;;;;;;4977166;28;20239;-71
2022/08/25 08:27:51;;;;;;;8.35;2.95;;;;;;;;;;4974400;28;20139;-71
2022/08/25 08:30:16;;;;;;;7.30;2.78;;;;;;;;;;4975057;28;20036;-71
2022/08/25 08:32:42;;;;;;;6.10;2.60;;;;;;;;;;4975114;28;20119;-70
2022/08/25 08:35:07;;;;;;;6.45;2.83;;;;;;;;;;4979490;28;20142;-70
2022/08/25 08:37:40;;;;;;;9.80;3.00;;;;;;;;;;4979224;28;20465;-71
2022/08/25 08:40:06;;;;;;;6.40;2.65;;;;;;;;;;4978652;28;20041;-71
2022/08/25 08:42:41;;;;;;;7.70;2.97;;;;;;;;;;4979283;28;20045;-72
2022/08/25 08:45:30;;;;;;;6.25;2.53;;;;;;;;;;4977735;28;20893;-70
2022/08/25 08:48:14;;;;;;;8.32;2.75;;;;;;;;;;4971924;28;20100;-71
2022/08/25 08:50:51;;;;;;;7.10;2.60;;;;;;;;;;4978993;28;20093;-71
2022/08/25 08:53:31;;;;;;;7.00;2.60;;;;;;;;;;4959923;28;20092;-73
2022/08/25 08:56:09;;;;;;;5.95;2.90;;;;;;;;;;4979385;28;20034;-71
2022/08/25 08:58:34;;;;;;;6.20;2.55;;;;;;;;;;4976752;28;20264;-71
2022/08/25 09:01:02;;;;;;;9.73;2.67;;;;;;;;;;4976422;28;20029;-70
2022/08/25 09:03:45;;;;;;;6.32;2.40;;;;;;;;;;4977060;28;20045;-71
2022/08/25 09:06:16;;;;;;;8.50;3.20;;;;;;;;;;4974054;28;20091;-71
2022/08/25 09:08:43;;;;;;;9.02;3.17;;;;;;;;;;4975425;28;20130;-72
2022/08/25 09:11:12;;;;;;;6.70;2.30;;;;;;;;;;4958752;28;20433;-70
2022/08/25 09:13:56;;;;;;;13.07;4.32;;;;;;;;;;4978782;28;20038;-70
2022/08/25 09:19:33;;;;;;;9.57;3.42;;;;;;;;;;4957736;28;20160;-71
2022/08/25 09:22:02;;;;;;;9.82;3.30;;;;;;;;;;4978958;28;20257;-70
2022/08/25 09:24:27;;;;;;;7.30;2.63;;;;;;;;;;4978899;28;20049;-71
2022/08/25 09:26:58;;;;;;;9.32;3.20;;;;;;;;;;4978965;28;20658;-72
2022/08/25 09:29:25;;;;;;;8.40;3.30;;;;;;;;;;4979407;28;20068;-71
2022/08/25 09:31:56;;;;;;;9.32;3.13;;;;;;;;;;4979597;28;20051;-71
2022/08/25 09:34:23;;;;;;;13.95;5.07;;;;;;;;;;4978193;28;20566;-70
2022/08/25 09:36:51;;;;;;;8.65;3.80;;;;;;;;;;4980009;28;20033;-72
2022/08/25 09:39:18;;;;;;;8.75;3.80;;;;;;;;;;4985468;28;20541;-70
2022/08/25 09:41:57;;;;;;;7.57;2.70;;;;;;;;;;4957690;28;20072;-68
2022/08/25 09:44:43;;;;;;;7.95;2.90;;;;;;;;;;4955879;28;20099;-69
2022/08/25 09:47:23;;;;;;;6.18;2.55;;;;;;;;;;4976150;28;20053;-70
2022/08/25 09:50:17;;;;;;;6.23;2.90;;;;;;;;;;4959163;28;20084;-68
2022/08/25 09:52:45;;;;;;;10.20;4.15;;;;;;;;;;4959308;28;20776;-70
2022/08/25 09:55:12;;;;;;;13.63;4.40;;;;;;;;;;4979527;28;20033;-72
2022/08/25 09:57:44;;;;;;;10.23;4.53;;;;;;;;;;4958530;28;20466;-69
2022/08/25 10:00:16;;;;;;;11.15;4.75;;;;;;;;;;4959814;28;20034;-69
2022/08/25 10:02:43;;;;;;;14.05;4.43;;;;;;;;;;4976644;28;20172;-71
2022/08/25 10:05:16;;;;;;;8.10;3.20;;;;;;;;;;4975797;28;20322;-69
2022/08/25 10:07:48;;;;;;;7.82;3.30;;;;;;;;;;4977697;28;20068;-68
2022/08/25 10:10:22;;;;;;;13.60;3.95;;;;;;;;;;4976311;28;20037;-69
2022/08/25 10:12:48;;;;;;;11.98;3.90;;;;;;;;;;4978160;28;20841;-68
2022/08/25 10:15:18;;;;;;;6.75;2.90;;;;;;;;;;4961799;28;20041;-68
2022/08/25 10:17:44;;;;;;;8.00;3.17;;;;;;;;;;4977066;28;20151;-70
2022/08/25 10:20:09;;;;;;;14.55;4.28;;;;;;;;;;4976899;28;20034;-69
2022/08/25 10:22:35;;;;;;;16.15;6.60;;;;;;;;;;4976952;28;20037;-70
2022/08/25 10:25:03;;;;;;;15.32;7.20;;;;;;;;;;4962915;28;20061;-69
2022/08/25 10:27:34;;;;;;;8.30;3.83;;;;;;;;;;4957728;28;20116;-69
2022/08/25 10:30:06;;;;;;;12.45;5.78;;;;;;;;;;4976780;28;20037;-69
2022/08/25 10:32:32;;;;;;;8.18;3.75;;;;;;;;;;4976613;28;20041;-70
2022/08/25 10:34:58;;;;;;;8.70;2.57;;;;;;;;;;4977885;28;20129;-69
2022/08/25 10:37:42;;;;;;;9.40;3.00;;;;;;;;;;4940368;28;20311;-68
2022/08/25 10:40:08;;;;;;;7.53;3.28;;;;;;;;;;4968170;28;20281;-69
2022/08/25 10:42:54;;;;;;;7.75;3.10;;;;;;;;;;4972693;28;20121;-67
2022/08/25 10:48:24;;;;;;;7.38;3.10;;;;;;;;;;4973647;28;20029;-67
2022/08/25 10:51:08;;;;;;;8.50;2.50;;;;;;;;;;4975803;28;20133;-68
2022/08/25 10:53:33;;;;;;;6.90;2.70;;;;;;;;;;4971771;28;20568;-67
2022/08/25 10:56:11;;;;;;;4.85;2.42;;;;;;;;;;4974492;28;20072;-68
2022/08/25 10:58:42;;;;;;;9.73;2.67;;;;;;;;;;4975884;28;20634;-68
2022/08/25 11:01:17;;;;;;;7.28;2.83;;;;;;;;;;4974575;28;20554;-68
2022/08/25 11:03:57;;;;;;;10.55;3.38;;;;;;;;;;4975969;28;20175;-69
2022/08/25 11:06:36;;;;;;;6.70;3.30;;;;;;;;;;4972948;28;20069;-67
2022/08/25 11:09:05;;;;;;;6.03;2.85;;;;;;;;;;4966838;28;20048;-69
2022/08/25 11:11:36;;;;;;;7.15;2.80;;;;;;;;;;4975836;28;20691;-67
2022/08/25 11:14:33;;;;;;;12.65;4.63;;;;;;;;;;4975030;28;20056;-71
2022/08/25 11:17:15;;;;;;;11.05;3.55;;;;;;;;;;4958918;28;20108;-71
2022/08/25 11:19:40;;;;;;;8.05;3.10;;;;;;;;;;4981491;28;20132;-71
2022/08/25 11:22:05;;;;;;;8.33;2.40;;;;;;;;;;4981612;28;20030;-71
2022/08/25 11:24:44;;;;;;;5.28;2.92;;;;;;;;;;4962001;28;20294;-71
2022/08/25 11:27:12;;;;;;;6.90;2.20;;;;;;;;;;4973443;28;20045;-70
2022/08/25 11:29:40;;;;;;;5.30;2.00;;;;;;;;;;4980547;28;20196;-70
2022/08/25 11:32:09;;;;;;;3.67;1.90;;;;;;;;;;4961672;28;20551;-70
2022/08/25 11:34:36;;;;;;;10.63;3.25;;;;;;;;;;4977725;28;20127;-74
2022/08/25 11:37:08;;;;;;;5.20;2.50;;;;;;;;;;4979509;28;20525;-71
2022/08/25 11:40:00;;;;;;;5.53;2.50;;;;;;;;;;4977253;28;20073;-71
2022/08/25 11:42:44;;;;;;;7.65;2.47;;;;;;;;;;4959731;28;20034;-70
2022/08/25 11:45:39;;;;;;;7.22;2.58;;;;;;;;;;4975002;28;20038;-72
2022/08/25 11:48:04;;;;;;;6.88;2.70;;;;;;;;;;4956300;28;20037;-71
2022/08/25 11:50:35;;;;;;;5.78;2.50;;;;;;;;;;4976451;28;20061;-71
2022/08/25 11:53:10;;;;;;;12.43;2.83;;;;;;;;;;4976013;28;20119;-71
2022/08/25 11:55:47;;;;;;;7.80;2.67;;;;;;;;;;4976063;28;20485;-71
2022/08/25 11:58:30;;;;;;;5.43;2.67;;;;;;;;;;4977376;28;20156;-70
2022/08/25 12:00:58;;;;;;;5.75;3.20;;;;;;;;;;4975578;28;20156;-70
2022/08/25 12:03:45;;;;;;;5.38;2.95;;;;;;;;;;4975600;28;20566;-70
2022/08/25 12:06:16;;;;;;;6.30;3.25;;;;;;;;;;4973070;28;21969;-69
2022/08/25 12:08:49;;;;;;;8.23;3.53;;;;;;;;;;4971670;28;20406;-69
2022/08/25 12:11:50;;;;;;;6.30;3.40;;;;;;;;;;4961711;28;20033;-71
2022/08/25 12:14:21;;;;;;;9.80;3.55;;;;;;;;;;4900301;29;20137;-69
2022/08/25 12:16:49;;;;;;;8.10;3.67;;;;;;;;;;4962034;28;20589;-70
2022/08/25 12:19:27;;;;;;;7.38;3.40;;;;;;;;;;4976481;28;20162;-70
2022/08/25 12:21:53;;;;;;;7.00;3.17;;;;;;;;;;4975814;28;20107;-72
2022/08/25 12:24:31;;;;;;;8.95;4.80;;;;;;;;;;4977781;28;20491;-70
2022/08/25 12:26:59;;;;;;;13.60;5.00;;;;;;;;;;4978752;28;20142;-71
2022/08/25 12:29:43;;;;;;;11.38;5.32;;;;;;;;;;4976487;28;20061;-71
2022/08/25 12:32:34;;;;;;;7.30;4.72;;;;;;;;;;4979007;28;20307;-70
2022/08/25 12:35:12;;;;;;;8.35;4.93;;;;;;;;;;4971908;28;20120;-69
2022/08/25 12:37:56;;;;;;;9.07;5.18;;;;;;;;;;4974469;28;20033;-72
2022/08/25 12:40:33;;;;;;;7.22;5.20;;;;;;;;;;4972976;28;20574;-68
2022/08/25 12:43:10;;;;;;;8.63;5.18;;;;;;;;;;4967829;28;20052;-68
2022/08/25 12:45:40;;;;;;;11.40;5.80;;;;;;;;;;4975638;28;20042;-70
2022/08/25 12:48:26;;;;;;;9.57;7.70;;;;;;;;;;4955971;28;20903;-67
2022/08/25 12:50:57;;;;;;;10.10;7.20;;;;;;;;;;4973193;28;20592;-69
2022/08/25 12:53:45;;;;;;;15.00;7.90;;;;;;;;;;4974504;28;20558;-70
2022/08/25 12:56:19;;;;;;;12.05;7.28;;;;;;;;;;4965555;28;20274;-69
2022/08/25 12:58:48;;;;;;;11.00;7.05;;;;;;;;;;4975141;28;20041;-69
2022/08/25 13:01:38;;;;;;;13.63;9.25;;;;;;;;;;4973383;28;20115;-69
2022/08/25 13:04:07;;;;;;;14.15;9.93;;;;;;;;;;4957076;28;20069;-69
2022/08/25 13:06:42;;;;;;;13.70;10.43;;;;;;;;;;4971666;28;20716;-67
2022/08/25 13:09:10;;;;;;;16.13;11.25;;;;;;;;;;4972837;28;20088;-67
2022/08/25 13:11:40;;;;;;;12.60;11.38;;;;;;;;;;4969509;28;20044;-66
2022/08/25 13:14:11;;;;;;;14.23;9.55;;;;;;;;;;4970865;28;20353;-67
2022/08/25 13:16:37;;;;;;;18.58;10.90;;;;;;;;;;4969767;28;20494;-67
2022/08/25 13:19:03;;;;;;;16.50;11.77;;;;;;;;;;4944206;28;20257;-68
2022/08/25 13:21:39;;;;;;;13.00;11.70;;;;;;;;;;4972796;28;20274;-68
2022/08/25 13:24:06;;;;;;;18.02;13.48;;;;;;;;;;4977166;28;20049;-68
2022/08/25 13:26:33;;;;;;;14.30;12.55;;;;;;;;;;4978537;28;20049;-70
2022/08/25 13:29:11;;;;;;;15.75;13.73;;;;;;;;;;4982118;28;20513;-70
2022/08/25 13:31:38;;;;;;;21.48;18.33;;;;;;;;;;4982242;28;20814;-70
2022/08/25 13:34:05;;;;;;;20.50;18.40;;;;;;;;;;4963165;28;20100;-70
2022/08/25 13:39:21;;;;;;;21.88;19.00;;;;;;;;;;4980951;28;20133;-70
2022/08/25 13:41:50;;;;;;;27.65;21.70;;;;;;;;;;4979455;28;20041;-70
2022/08/25 13:44:17;;;;;;;25.67;21.85;;;;;;;;;;4979502;28;20380;-67
2022/08/25 13:46:44;;;;;;;22.98;20.10;;;;;;;;;;4969521;28;20132;-68
2022/08/25 13:49:09;;;;;;;26.00;22.83;;;;;;;;;;4970202;28;20034;-68
2022/08/25 13:51:36;;;;;;;26.23;23.48;;;;;;;;;;4971741;28;20060;-66
2022/08/25 13:54:03;;;;;;;24.52;21.75;;;;;;;;;;4976586;28;20045;-67
2022/08/25 13:56:28;;;;;;;22.60;19.92;;;;;;;;;;4969310;28;20159;-67
2022/08/25 13:58:55;;;;;;;25.90;23.38;;;;;;;;;;4973781;28;20041;-67
2022/08/25 14:01:23;;;;;;;25.70;23.00;;;;;;;;;;4958888;28;20624;-67
2022/08/25 14:03:51;;;;;;;26.98;24.13;;;;;;;;;;4976278;28;20426;-67
2022/08/25 14:06:21;;;;;;;28.05;25.25;;;;;;;;;;4977245;28;20038;-67
2022/08/25 14:08:48;;;;;;;30.27;27.13;;;;;;;;;;4975977;28;20064;-66
2022/08/25 14:11:34;;;;;;;29.83;24.58;;;;;;;;;;4978440;28;20191;-67
2022/08/25 14:14:07;;;;;;;29.63;26.40;;;;;;;;;;4976422;28;20033;-67
2022/08/25 14:16:36;;;;;;;30.90;27.55;;;;;;;;;;4957606;28;20045;-67
2022/08/25 14:19:03;;;;;;;30.50;25.75;;;;;;;;;;4973961;28;20025;-67
2022/08/25 14:21:31;;;;;;;30.20;27.13;;;;;;;;;;4975699;28;20033;-68
2022/08/25 14:23:56;;;;;;;28.70;25.40;;;;;;;;;;4977094;28;20075;-67
2022/08/25 14:26:22;;;;;;;28.92;25.77;;;;;;;;;;4975919;28;20099;-67
2022/08/25 14:28:48;;;;;;;29.52;26.48;;;;;;;;;;4974834;28;20892;-67
2022/08/25 14:31:22;;;;;;;30.20;27.10;;;;;;;;;;4976523;28;21902;-66
2022/08/25 14:33:53;;;;;;;31.20;27.13;;;;;;;;;;4974649;28;20034;-66
2022/08/25 14:36:19;;;;;;;31.50;28.30;;;;;;;;;;4975892;28;20760;-66
2022/08/25 14:38:44;;;;;;;31.58;28.50;;;;;;;;;;4975285;28;20671;-67
2022/08/25 14:41:10;;;;;;;33.47;29.80;;;;;;;;;;4941701;28;20075;-68
2022/08/25 14:43:36;;;;;;;35.25;31.60;;;;;;;;;;4975768;28;20073;-67
2022/08/25 14:46:05;;;;;;;34.97;31.38;;;;;;;;;;4961012;28;20067;-68
2022/08/25 14:48:33;;;;;;;32.40;28.95;;;;;;;;;;4973491;28;20604;-68
2022/08/25 14:51:00;;;;;;;35.78;31.92;;;;;;;;;;4977993;28;20450;-68